LEBG

Burgos Airport

Burgos, Spain
TAF LEBG 181700Z 1818/1903 20014KT 9999 SCT020 BKN030 PROB40 TEMPO 1818/1820 23015G25KT PROB40 TEMPO 1818/1820 4000 DZRA BKN010
Issued Valid From Valid To
Dec-18 @ 17:00 UTC
(7 hours ago)
Dec-18 @ 18:00 UTC
(6 hours ago)
Dec-19 @ 03:00 UTC
(in 3 hours)
Dec-18 @ 18:00 to Dec-19 @ 03:00
TAF LEBG 181700Z 1818/1903 20014KT 9999 SCT020 BKN030
Wind Visibility Clouds
200° at 14 knots 10,000+ meters
  • Scattered at 2,000' AGL
  • Broken at 3,000' AGL
Expired Click to View Dec-18 @ 18:00 to Dec-18 @ 20:00
PROB40 TEMPO 1818/1820 4000 DZRA BKN010
Wind
230° at 15 knots
 Gusting to 25 knots
Expired Click to View Dec-18 @ 18:00 to Dec-18 @ 20:00
PROB40 TEMPO 1818/1820 4000 DZRA BKN010
Visibility Clouds Conditions
4,007 meters
  • Broken at 1,000' AGL
  • Drizzle
  • Rain
TAF LEBG 181700Z 1818/1903 20014KT 9999 SCT020 BKN030 PROB40 TEMPO 1818/1820 23015G25KT PROB40 TEMPO 1818/1820 4000 DZRA BKN010
Issued Dec-18 @ 17:00 UTC
(7 hours ago)
Valid From Dec-18 @ 18:00 UTC
(6 hours ago)
Valid To Dec-19 @ 03:00 UTC
(in 3 hours)
Dec-18 @ 18:00 - Dec-19 @ 03:00
Wind Visibility
200° at 14 knots 10,000+ meters
Clouds
  • Scattered at 2,000' AGL
  • Broken at 3,000' AGL
Dec-18 @ 18:00 - Dec-18 @ 20:00
Wind
230° at 15 knots
 Gusting to 25 knots
Dec-18 @ 18:00 - Dec-18 @ 20:00
Clouds
  • Broken at 1,000' AGL
Conditions
  • Drizzle
  • Rain